AirNav   Pilot Hours Calculator
 
 542 users online  

4WN5 David Randall Airport
Balsam Lake, Wisconsin, USA

GOING TO BALSAM LAKE?


FAA INFORMATION EFFECTIVE 26 JANUARY 2023

Location

FAA Identifier: 4WN5
Lat/Long: 45-27-25.2940N 092-22-41.9010W
45-27.421567N 092-22.698350W
45.4570261,-92.3783058
(estimated)
Elevation: 1155 ft. / 352 m (estimated)
Variation: 01E ()
From city: 3 miles E of BALSAM LAKE, WI
Time zone: UTC -6 (UTC -5 during Daylight Saving Time)
Zip code: 54810

Airport Operations

Airport use: Private use. Permission required prior to landing
Activation date: 05/2003
Control tower: no
ARTCC: MINNEAPOLIS CENTER
FSS: GREEN BAY FLIGHT SERVICE STATION
Attendance: UNATNDD
Segmented circle: no

Airport Communications

WX AWOS-3 at OEO (16 nm SW): 119.925 (715-294-3845)
WX AWOS-3PT at UBE (17 nm E): 119.175 (715-822-3452)
WX AWOS-3 at RNH (20 nm S): 120.0 (715-246-3202)

Nearby radio navigation aids

NDB name  Hdg/Dist  Freq  Var  ID
BIG DOCTOR182/21.920301WBXR -... -..- .-.
RUSH CITY119/28.128202EROS .-. --- ...

Airport Services

Runway Information

Runway 18/36

Dimensions: 2552 x 65 ft. / 778 x 20 m
Surface: turf
RUNWAY 18  RUNWAY 36
Latitude: 45-27.633000N45-27.214000N
Longitude: 092-22.673000W092-22.713000W
Traffic pattern: leftleft

Airport Ownership and Management from official FAA records

Ownership: Privately-owned
Owner: DAVID RANDALL
1740 108TH ST
BALSAM LAKE, WI 54810
Phone 715-491-0322
Manager: DAVID RANDALL
1740 108TH ST
BALSAM LAKE, WI 54810
Phone 715-491-0322

Airport Operational Statistics

Aircraft based on the field: 1
Single engine airplanes: 1
    

Additional Remarks

CLSD WINTER MONTH,
80 FT WATER TOWER 3NM W, 425 FT TOWER & ANT 4 NM W, AND 90 FT SILO 800 FT W OF ARPT.
90 FT GRAIN LEG 650 FT WEST OF AIRSTRIP.
FOR CD CTC MINNEAPOLIS ARTCC AT 651-463-5588.

Instrument Procedures

There are no published instrument procedures at 4WN5.

Some nearby airports with instrument procedures:

KAHH - Amery Municipal Airport (11 nm S)
KOEO - L O Simenstad Municipal Airport (16 nm SW)
KUBE - Cumberland Municipal Airport (17 nm E)
KRNH - New Richmond Regional Airport (20 nm S)
KRZN - Burnett County Airport (22 nm N)
 
Loc | Ops | Rwys | IFR | FBO | Links
Com | Nav | Svcs | Stats | Notes
Area around 4WN5 (David Randall Airport)
 
Road maps at: MapQuest Bing Google
 
Aerial photo
No photo
 
Sectional chart

 
Airport distance calculator
Flying to David Randall Airport? Find the distance to fly.

From to 4WN5

Sunrise and sunset
Times for 27-Jan-2023
 Local
(UTC-6)
 Zulu
(UTC)
Morning civil twilight07:0513:05
Sunrise07:3713:37
Sunset17:0823:08
Evening civil twilight17:4023:40

Current date and time
Zulu (UTC)  27-Jan-2023 10:14:01
Local (UTC-6)  27-Jan-2023 04:14:01
 
METAR
KOEO 
16nm SW 
270955Z AUTO 16010G15KT 5SM BKN014 OVC020 M05/M05 A2946 RMK AO2 T10541054 PWINO
KUBE 
17nm E 
270955Z AUTO 16013KT 5SM -SN OVC015 M07/M07 A2944 RMK AO2
KRNH 
20nm S 
270955Z AUTO 17012G18KT 7SM -SN BKN017 OVC022 M06/M06 A2944 RMK AO2 T10591059
KRZN 
22nm N 
270955Z AUTO 17014G17KT 4SM -SN BKN010 OVC018 M08/M10 A2942 RMK AO2 T10811105
KRPD 
28nm E 
270955Z AUTO 14013KT 2 1/2SM -SN SCT015 BKN023 OVC028 M10/M10 A2949 RMK AO2 T10961100
KROS 
28nm NW 
270955Z AUTO 17012G15KT 2 1/2SM -SN SCT004 SCT017 OVC025 M04/M06 A2939 RMK AO2 VIS 1 1/2V4 T10441062
TAF
KRNH 
20nm S 
270712Z 2707/2806 17014G18KT P6SM BKN015 FM270800 18015G24KT 2SM -SN BR OVC009 FM271300 26013G21KT 4SM BLSN OVC009 FM272200 30016G24KT P6SM BKN025 FM280200 30013KT P6SM BKN040
NOTAMs
Click for the latest NOTAMs
NOTAMs are issued by the DoD/FAA and will open in a separate window not controlled by AirNav.

 

 
 

Would you like to see your business listed on this page?

 If your business provides an interesting product or service to pilots, flight crews, aircraft, or users of the David Randall Airport, you should consider listing it here.  To start the listing process, click on the button below
 
Add a business
 

Other Pages about David Randall Airport

Update a link
 
Copyright © AirNav, LLC. All rights reserved. Privacy Policy  Contact